createdAt,value
2023-02-24T00:06:14.050Z,100049
2023-02-24T00:16:14.818Z,100035
2023-02-24T00:36:16.113Z,100010
2023-02-24T00:46:16.848Z,100013
2023-02-24T00:56:17.455Z,99999
2023-02-24T01:06:18.217Z,99991
2023-02-24T01:16:18.977Z,99983
2023-02-24T01:26:19.457Z,99964
2023-02-24T01:36:20.373Z,99943
2023-02-24T01:46:20.745Z,99929
2023-02-24T01:56:21.349Z,99925
2023-02-24T02:06:22.002Z,99908
2023-02-24T02:16:22.643Z,99896
2023-02-24T02:26:23.114Z,99884
2023-02-24T02:36:23.695Z,99881
2023-02-24T02:46:24.251Z,99875
2023-02-24T02:56:24.721Z,99868
2023-02-24T03:06:25.251Z,99853
2023-02-24T03:16:25.714Z,99844
2023-02-24T03:26:26.174Z,99834
2023-02-24T03:36:26.693Z,99837
2023-02-24T03:46:27.427Z,99825
2023-02-24T03:56:27.765Z,99810
2023-02-24T04:06:28.412Z,99803
2023-02-24T04:26:29.366Z,99779
2023-02-24T04:36:29.928Z,99767
2023-02-24T04:46:30.533Z,99754
2023-02-24T04:56:31.134Z,99735
2023-02-24T05:06:31.729Z,99727
2023-02-24T05:16:32.341Z,99722
2023-02-24T05:26:32.760Z,99723
2023-02-24T05:36:33.358Z,99717
2023-02-24T05:46:33.944Z,99701
2023-02-24T05:56:34.455Z,99708
2023-02-24T06:06:35.017Z,99707
2023-02-24T06:16:36.930Z,99702
2023-02-24T06:26:36.042Z,99703
2023-02-24T06:36:36.626Z,99706
2023-02-24T06:46:37.143Z,99703
2023-02-24T06:56:37.633Z,99692
2023-02-24T07:06:38.155Z,99685
2023-02-24T07:16:38.649Z,99669
2023-02-24T07:26:39.093Z,99657
2023-02-24T07:36:39.710Z,99657
2023-02-24T07:46:40.203Z,99660
2023-02-24T07:56:40.832Z,99649
2023-02-24T08:06:41.426Z,99633
2023-02-24T08:16:42.123Z,99638
2023-02-24T08:26:42.893Z,99633
2023-02-24T08:36:43.533Z,99619
2023-02-24T08:46:44.302Z,99606
2023-02-24T08:56:44.867Z,99604
2023-02-24T09:06:45.580Z,99583
2023-02-24T09:16:46.483Z,99585
2023-02-24T09:26:47.280Z,99568
2023-02-24T09:36:48.193Z,99556
2023-02-24T09:46:49.223Z,99549
2023-02-24T09:56:50.222Z,99548
2023-02-24T10:06:51.312Z,99534
2023-02-24T10:16:52.215Z,99510
2023-02-24T10:27:00.702Z,99503
2023-02-24T10:36:53.999Z,99489
2023-02-24T10:46:54.965Z,99465
2023-02-24T10:56:55.824Z,99447
2023-02-24T11:06:56.679Z,99432
2023-02-24T11:16:57.618Z,99403
2023-02-24T11:26:58.356Z,99388
2023-02-24T11:36:59.152Z,99363
2023-02-24T11:47:00.031Z,99340
2023-02-24T11:57:00.941Z,99324
2023-02-24T12:07:01.829Z,99316
2023-02-24T12:17:02.718Z,99288
2023-02-24T12:27:03.656Z,99275
2023-02-24T12:37:04.825Z,99266
2023-02-24T12:57:06.626Z,99238
2023-02-24T13:07:07.622Z,99231
2023-02-24T13:17:12.662Z,99206
2023-02-24T13:27:09.654Z,99194
2023-02-24T13:37:10.778Z,99191
2023-02-24T13:47:11.883Z,99185
2023-02-24T13:57:12.905Z,99186
2023-02-24T14:07:13.953Z,99174
2023-02-24T14:17:15.004Z,99166
2023-02-24T14:27:17.435Z,99160
2023-02-24T14:37:17.140Z,99140
2023-02-24T14:47:18.080Z,99132
2023-02-24T14:57:19.036Z,99110
2023-02-24T15:07:20.035Z,99105
2023-02-24T15:17:21.012Z,99095
2023-02-24T15:27:24.078Z,99074
2023-02-24T15:37:25.346Z,99065
2023-02-24T15:47:24.331Z,99051
2023-02-24T15:57:25.903Z,99049
2023-02-24T16:07:26.063Z,99048
2023-02-24T16:17:27.118Z,99044
2023-02-24T16:27:28.416Z,99030
2023-02-24T16:37:29.583Z,99015
2023-02-24T16:47:30.494Z,98998
2023-02-24T16:57:31.302Z,98989
2023-02-24T17:07:32.297Z,98991
2023-02-24T17:17:33.266Z,98987
2023-02-24T17:27:34.500Z,98973
2023-02-24T17:37:35.246Z,98961
2023-02-24T17:47:36.211Z,98968
